createdAt,value
2019-06-07T00:00:39.599Z,62.40
2019-06-07T00:01:09.556Z,62.24
2019-06-07T00:01:44.997Z,62.06
2019-06-07T00:02:19.858Z,62.15
2019-06-07T00:02:55.508Z,62.32
2019-06-07T00:03:30.765Z,62.49
2019-06-07T00:04:08.535Z,62.40
2019-06-07T00:04:43.012Z,61.88
2019-06-07T00:05:20.011Z,61.62
2019-06-07T00:05:54.873Z,61.84
2019-06-07T00:06:30.426Z,61.88
2019-06-07T00:07:09.064Z,61.88
2019-06-07T00:07:42.285Z,62.33
2019-06-07T00:08:26.656Z,61.96
2019-06-07T00:08:54.889Z,62.12
2019-06-07T00:09:30.043Z,62.38
2019-06-07T00:10:07.075Z,62.42
2019-06-07T00:10:42.374Z,62.47
2019-06-07T00:11:19.960Z,62.03
2019-06-07T00:11:54.556Z,62.11
2019-06-07T00:12:30.239Z,62.28
2019-06-07T00:13:05.218Z,62.48
2019-06-07T00:13:40.751Z,62.60
2019-06-07T00:14:18.247Z,62.61
2019-06-07T00:14:52.992Z,62.69
2019-06-07T00:15:29.413Z,62.67
2019-06-07T00:16:04.765Z,62.85
2019-06-07T00:16:39.638Z,62.88
2019-06-07T00:17:17.191Z,62.71
2019-06-07T00:17:52.041Z,62.64
2019-06-07T00:18:26.867Z,62.27
2019-06-07T00:19:02.277Z,61.84
2019-06-07T00:19:37.543Z,61.87
2019-06-07T00:20:15.584Z,62.08
2019-06-07T00:20:49.708Z,62.07
2019-06-07T00:22:12.158Z,62.39
2019-06-07T00:22:29.970Z,62.20
2019-06-07T00:22:38.777Z,62.15
2019-06-07T00:23:18.197Z,62.10
2019-06-07T00:23:50.451Z,61.94
2019-06-07T00:24:26.086Z,61.87
2019-06-07T00:25:01.267Z,61.93
2019-06-07T00:25:36.192Z,62.00
2019-06-07T00:26:13.443Z,61.99
2019-06-07T00:26:58.259Z,62.02
2019-06-07T00:27:25.095Z,62.27
2019-06-07T00:28:00.643Z,62.01
2019-06-07T00:28:35.890Z,62.02
2019-06-07T00:29:13.775Z,61.79
2019-06-07T00:29:47.947Z,61.91
2019-06-07T00:30:44.628Z,62.08
2019-06-07T00:30:59.940Z,61.93
2019-06-07T00:31:35.429Z,61.75
2019-06-07T00:32:11.737Z,61.67
2019-06-07T00:32:47.269Z,61.44
2019-06-07T00:33:24.536Z,61.50
2019-06-07T00:33:59.640Z,61.53
2019-06-07T00:34:34.544Z,61.36
2019-06-07T00:35:12.047Z,61.22
2019-06-07T00:35:48.595Z,60.79
2019-06-07T00:36:23.492Z,60.35
2019-06-07T00:36:58.976Z,60.49
2019-06-07T00:37:34.187Z,60.51
2019-06-07T00:38:09.388Z,60.60
2019-06-07T00:38:44.315Z,61.09
2019-06-07T00:39:25.009Z,60.71
2019-06-07T00:40:13.511Z,60.74
2019-06-07T00:40:33.606Z,60.34
2019-06-07T00:41:10.048Z,60.34
2019-06-07T00:41:45.038Z,60.53
2019-06-07T00:42:23.380Z,60.32
2019-06-07T00:42:57.343Z,60.39
2019-06-07T00:43:32.284Z,60.35
2019-06-07T00:44:07.780Z,60.53
2019-06-07T00:44:42.967Z,60.58
2019-06-07T00:45:21.162Z,60.60
2019-06-07T00:45:55.446Z,60.39
2019-06-07T00:46:30.818Z,60.46
2019-06-07T00:47:05.816Z,60.32
2019-06-07T00:47:41.562Z,60.13
2019-06-07T00:48:27.464Z,60.28
2019-06-07T00:48:53.658Z,60.11
2019-06-07T00:49:40.489Z,60.23
2019-06-07T00:50:07.146Z,60.28
2019-06-07T00:50:41.993Z,60.12
2019-06-07T00:51:19.036Z,59.79
2019-06-07T00:51:54.332Z,59.85
2019-06-07T00:53:17.415Z,59.76
2019-06-07T00:53:43.309Z,60.04
2019-06-07T00:54:21.481Z,60.11
2019-06-07T00:54:56.782Z,60.38
2019-06-07T00:55:32.132Z,60.42
2019-06-07T00:56:08.207Z,60.44
2019-06-07T00:56:43.819Z,61.01
2019-06-07T00:57:19.874Z,60.97
2019-06-07T00:57:55.945Z,62.05
2019-06-07T00:58:31.524Z,61.88
2019-06-07T00:59:11.094Z,61.85
2019-06-07T00:59:43.603Z,61.60
2019-06-07T01:00:22.320Z,61.71
2019-06-07T01:00:56.040Z,61.73
2019-06-07T01:01:30.995Z,61.64
2019-06-07T01:02:06.803Z,61.57
2019-06-07T01:02:42.516Z,61.47
2019-06-07T01:03:21.988Z,61.87
2019-06-07T01:03:54.432Z,61.56
2019-06-07T01:04:31.249Z,61.64
2019-06-07T01:05:08.793Z,62.05
2019-06-07T01:05:44.082Z,62.23
2019-06-07T01:06:22.661Z,62.00
2019-06-07T01:06:55.978Z,62.55
2019-06-07T01:07:31.455Z,62.70
2019-06-07T01:08:06.780Z,62.91
2019-06-07T01:08:41.583Z,62.48
2019-06-07T01:09:17.778Z,62.34
2019-06-07T01:09:52.938Z,62.59
2019-06-07T01:10:51.803Z,62.56
2019-06-07T01:11:05.142Z,62.74
2019-06-07T01:11:40.418Z,62.53
2019-06-07T01:12:19.411Z,62.59
2019-06-07T01:12:52.606Z,62.87
2019-06-07T01:13:27.862Z,62.79
2019-06-07T01:14:02.699Z,63.01
2019-06-07T01:14:38.564Z,63.08
2019-06-07T01:15:17.683Z,63.00
2019-06-07T01:15:52.724Z,63.13
2019-06-07T01:16:28.195Z,63.21
2019-06-07T01:17:41.176Z,63.31
2019-06-07T01:18:46.571Z,63.71
2019-06-07T01:19:18.989Z,63.79
2019-06-07T01:19:55.119Z,63.86
2019-06-07T01:20:32.152Z,64.35
2019-06-07T01:21:07.619Z,64.38
2019-06-07T01:21:42.521Z,64.44
2019-06-07T01:22:19.999Z,64.36
2019-06-07T01:22:55.062Z,64.11
2019-06-07T01:24:12.369Z,64.23
2019-06-07T01:24:44.238Z,64.62
2019-06-07T01:25:23.838Z,64.95
2019-06-07T01:25:56.269Z,64.95
2019-06-07T01:26:31.662Z,64.97
2019-06-07T01:27:06.662Z,64.82
2019-06-07T01:27:42.123Z,64.97
2019-06-07T01:28:21.964Z,64.86
2019-06-07T01:28:53.916Z,64.92
2019-06-07T01:29:31.038Z,64.68
2019-06-07T01:30:16.194Z,64.65
2019-06-07T01:30:52.519Z,64.69
2019-06-07T01:31:31.316Z,64.42
2019-06-07T01:32:05.006Z,64.37
2019-06-07T01:32:39.881Z,64.14
2019-06-07T01:33:15.916Z,64.37
2019-06-07T01:33:51.547Z,64.52
2019-06-07T01:34:26.940Z,64.38
2019-06-07T01:35:02.565Z,64.40
2019-06-07T01:35:37.775Z,64.36
2019-06-07T01:36:12.656Z,64.21
2019-06-07T01:36:48.034Z,64.57
2019-06-07T01:37:27.488Z,64.51
2019-06-07T01:38:00.016Z,64.64
2019-06-07T01:38:35.490Z,64.69
2019-06-07T01:39:10.617Z,64.90
2019-06-07T01:39:45.631Z,65.16
2019-06-07T01:40:28.864Z,65.39
2019-06-07T01:40:58.201Z,65.15
2019-06-07T01:41:33.149Z,65.37
2019-06-07T01:42:09.761Z,65.39
2019-06-07T01:42:44.974Z,65.38
2019-06-07T01:43:26.180Z,65.44
2019-06-07T01:43:56.726Z,65.33
2019-06-07T01:44:32.121Z,65.38
2019-06-07T01:45:09.162Z,65.37
2019-06-07T01:45:44.471Z,65.35
2019-06-07T01:46:20.765Z,65.17
2019-06-07T01:46:56.249Z,64.84
2019-06-07T01:47:32.397Z,64.87
2019-06-07T01:48:07.704Z,64.83
2019-06-07T01:48:49.507Z,64.93
2019-06-07T01:49:21.931Z,65.28
2019-06-07T01:49:57.114Z,64.94
2019-06-07T01:50:32.146Z,65.09
2019-06-07T01:51:07.614Z,64.83
2019-06-07T01:51:42.890Z,64.73
2019-06-07T01:52:19.594Z,64.82
2019-06-07T01:52:54.778Z,64.83
2019-06-07T01:53:31.613Z,65.00
2019-06-07T01:54:49.209Z,64.72
2019-06-07T01:54:58.069Z,64.57
2019-06-07T01:55:23.620Z,64.75
2019-06-07T01:55:57.384Z,64.78
2019-06-07T01:56:33.136Z,64.77
2019-06-07T01:57:08.338Z,64.73
2019-06-07T01:57:48.065Z,64.83
2019-06-07T01:58:21.856Z,64.58
2019-06-07T01:58:57.610Z,64.59
2019-06-07T01:59:32.790Z,64.47
2019-06-07T02:00:11.091Z,64.21
2019-06-07T02:00:47.240Z,64.19
2019-06-07T02:01:23.948Z,64.24
2019-06-07T02:01:59.569Z,64.10
2019-06-07T02:02:34.962Z,64.18
2019-06-07T02:03:09.818Z,64.23
2019-06-07T02:03:45.210Z,64.19
2019-06-07T02:04:23.269Z,64.07
2019-06-07T02:04:57.103Z,64.12
2019-06-07T02:05:32.677Z,63.85
2019-06-07T02:06:07.859Z,63.79
2019-06-07T02:06:42.683Z,63.74
2019-06-07T02:07:20.385Z,63.97
2019-06-07T02:07:55.070Z,63.91
2019-06-07T02:08:34.291Z,63.95
2019-06-07T02:09:09.557Z,63.94
2019-06-07T02:09:46.056Z,63.98
2019-06-07T02:10:25.769Z,63.97
2019-06-07T02:10:58.310Z,63.73
2019-06-07T02:11:33.790Z,63.73
2019-06-07T02:12:25.161Z,63.75
2019-06-07T02:12:46.094Z,63.82
2019-06-07T02:13:21.333Z,63.99
2019-06-07T02:13:56.109Z,64.16
2019-06-07T02:14:33.583Z,64.10
2019-06-07T02:15:10.529Z,64.15
2019-06-07T02:15:45.332Z,64.20
2019-06-07T02:16:21.811Z,64.21
2019-06-07T02:16:57.112Z,64.40
2019-06-07T02:17:33.180Z,64.29
2019-06-07T02:18:08.920Z,64.24
2019-06-07T02:19:01.082Z,64.29
2019-06-07T02:19:22.025Z,63.92
2019-06-07T02:19:57.656Z,63.69
2019-06-07T02:20:34.433Z,63.17
2019-06-07T02:21:09.629Z,63.25
2019-06-07T02:21:45.088Z,63.13
2019-06-07T02:22:21.824Z,63.21
2019-06-07T02:22:56.850Z,63.33
2019-06-07T02:23:33.749Z,63.62
2019-06-07T02:24:09.005Z,63.37
2019-06-07T02:24:44.011Z,63.41
2019-06-07T02:25:43.787Z,63.49
2019-06-07T02:25:56.434Z,63.31
2019-06-07T02:26:32.645Z,63.36
2019-06-07T02:27:08.353Z,63.28
2019-06-07T02:27:43.615Z,63.33
2019-06-07T02:28:44.258Z,63.20
2019-06-07T02:28:55.769Z,63.40
2019-06-07T02:29:33.377Z,62.46
2019-06-07T02:30:36.745Z,62.27
2019-06-07T02:30:59.428Z,62.57
2019-06-07T02:31:27.453Z,62.85
2019-06-07T02:32:00.727Z,62.54
2019-06-07T02:32:37.221Z,62.36
2019-06-07T02:33:12.592Z,62.20
2019-06-07T02:33:47.474Z,62.42
2019-06-07T02:34:24.903Z,62.51
2019-06-07T02:34:59.732Z,63.11
2019-06-07T02:35:40.447Z,63.63
2019-06-07T02:36:11.985Z,63.73
2019-06-07T02:36:47.209Z,63.77
2019-06-07T02:37:24.211Z,63.91
2019-06-07T02:37:59.150Z,64.14
2019-06-07T02:38:37.500Z,63.96
2019-06-07T02:39:10.879Z,63.91
2019-06-07T02:39:46.266Z,64.17
2019-06-07T02:40:21.959Z,64.43
2019-06-07T02:40:56.899Z,64.00
2019-06-07T02:41:38.695Z,63.50
2019-06-07T02:42:09.276Z,63.45
2019-06-07T02:42:44.224Z,63.70
2019-06-07T02:43:19.859Z,63.96
2019-06-07T02:43:55.083Z,63.34
2019-06-07T02:44:33.036Z,63.49
2019-06-07T02:45:10.740Z,63.32
2019-06-07T02:45:46.369Z,63.49
2019-06-07T02:46:35.362Z,63.81
2019-06-07T02:47:02.409Z,63.90
2019-06-07T02:47:38.510Z,64.18
2019-06-07T02:48:13.655Z,64.15
2019-06-07T02:48:49.078Z,64.49
2019-06-07T02:49:28.390Z,64.51
2019-06-07T02:50:01.232Z,64.25
2019-06-07T02:50:38.681Z,64.23
2019-06-07T02:51:13.789Z,63.76
2019-06-07T02:51:48.581Z,63.66
2019-06-07T02:52:27.240Z,63.50
2019-06-07T02:53:01.001Z,64.23
2019-06-07T02:53:39.977Z,63.88
2019-06-07T02:54:13.482Z,63.87
2019-06-07T02:54:48.681Z,64.09
2019-06-07T02:55:27.281Z,63.80
2019-06-07T02:56:52.263Z,63.98
2019-06-07T02:57:14.367Z,64.10
2019-06-07T02:57:49.912Z,64.41
2019-06-07T02:58:29.909Z,64.28
2019-06-07T02:59:01.909Z,64.45
2019-06-07T03:00:03.212Z,64.60
2019-06-07T03:01:00.598Z,64.71
2019-06-07T03:01:12.863Z,64.69
2019-06-07T03:01:48.580Z,65.13
2019-06-07T03:02:26.643Z,65.37
2019-06-07T03:03:00.574Z,65.31
2019-06-07T03:03:39.795Z,65.33
2019-06-07T03:04:14.130Z,65.36
2019-06-07T03:04:49.070Z,65.48
2019-06-07T03:05:25.113Z,65.46
2019-06-07T03:06:01.688Z,65.65
2019-06-07T03:06:43.233Z,65.28
2019-06-07T03:07:14.589Z,64.55
2019-06-07T03:07:50.202Z,64.62
2019-06-07T03:08:25.832Z,64.41
2019-06-07T03:09:01.806Z,64.84
2019-06-07T03:09:39.807Z,64.75
2019-06-07T03:10:14.746Z,64.78
2019-06-07T03:10:52.157Z,64.59
2019-06-07T03:11:31.633Z,64.72
2019-06-07T03:12:07.165Z,64.47
2019-06-07T03:12:44.400Z,64.44
2019-06-07T03:13:22.126Z,64.31
2019-06-07T03:13:58.372Z,64.43
2019-06-07T03:14:36.533Z,64.71
2019-06-07T03:15:30.162Z,65.18
2019-06-07T03:15:51.673Z,64.89
2019-06-07T03:16:31.311Z,65.06
2019-06-07T03:17:17.586Z,65.47
2019-06-07T03:17:57.160Z,65.37
2019-06-07T03:18:32.282Z,65.65
2019-06-07T03:19:09.741Z,65.60
2019-06-07T03:19:47.422Z,65.53
2019-06-07T03:20:27.519Z,65.49
2019-06-07T03:21:05.610Z,65.72
2019-06-07T03:21:41.947Z,65.54
2019-06-07T03:22:17.620Z,64.78
2019-06-07T03:22:53.355Z,64.70
2019-06-07T03:23:32.382Z,64.49
2019-06-07T03:24:07.256Z,64.64
2019-06-07T03:24:45.845Z,64.90
2019-06-07T03:25:20.515Z,65.20
2019-06-07T03:25:56.477Z,65.15
2019-06-07T03:26:42.400Z,65.57
2019-06-07T03:27:32.694Z,65.35
2019-06-07T03:27:49.854Z,65.28
2019-06-07T03:28:23.584Z,64.85
2019-06-07T03:28:58.457Z,64.80
2019-06-07T03:29:36.492Z,64.52
2019-06-07T03:30:36.035Z,64.55
2019-06-07T03:31:00.753Z,64.80
2019-06-07T03:31:28.535Z,64.65
2019-06-07T03:32:03.964Z,64.65
2019-06-07T03:32:45.799Z,64.38
2019-06-07T03:33:16.055Z,64.88
2019-06-07T03:33:51.441Z,64.92
2019-06-07T03:34:28.882Z,65.31
2019-06-07T03:35:03.398Z,64.92
2019-06-07T03:35:40.674Z,64.85
2019-06-07T03:36:23.947Z,64.75
2019-06-07T03:36:52.556Z,64.74
2019-06-07T03:37:29.960Z,64.55
2019-06-07T03:38:04.124Z,64.37
2019-06-07T03:38:40.023Z,64.60
2019-06-07T03:39:15.749Z,64.52
2019-06-07T03:39:50.374Z,64.60
2019-06-07T03:40:26.698Z,64.73
2019-06-07T03:41:02.220Z,64.76
2019-06-07T03:41:46.354Z,64.90
2019-06-07T03:42:14.013Z,65.19
2019-06-07T03:42:49.562Z,65.31
2019-06-07T03:43:24.151Z,65.71
2019-06-07T03:43:59.588Z,65.58
2019-06-07T03:44:36.396Z,65.63
2019-06-07T03:45:11.786Z,65.36
2019-06-07T03:45:47.112Z,65.30
2019-06-07T03:46:22.582Z,65.14
2019-06-07T03:46:57.119Z,65.29
2019-06-07T03:47:36.491Z,65.80
2019-06-07T03:48:09.679Z,65.93
2019-06-07T03:48:44.426Z,66.03
2019-06-07T03:49:19.883Z,65.98
2019-06-07T03:49:55.295Z,65.93
2019-06-07T03:50:33.525Z,65.94
2019-06-07T03:51:23.968Z,66.16
2019-06-07T03:51:44.304Z,66.16
2019-06-07T03:52:18.897Z,66.39
2019-06-07T03:52:54.279Z,66.74
2019-06-07T03:53:31.134Z,66.88
2019-06-07T03:54:06.294Z,66.97
2019-06-07T03:54:41.815Z,66.64
2019-06-07T03:55:17.240Z,66.83
2019-06-07T03:55:51.938Z,66.55
2019-06-07T03:56:28.300Z,66.42
2019-06-07T03:57:04.892Z,66.28
2019-06-07T03:58:29.492Z,66.66
2019-06-07T03:58:37.803Z,66.41
2019-06-07T03:58:53.811Z,66.20
2019-06-07T03:59:31.243Z,66.19
2019-06-07T04:00:08.879Z,65.83
2019-06-07T04:00:44.387Z,65.81
2019-06-07T04:01:18.974Z,65.96
2019-06-07T04:01:54.342Z,65.72
2019-06-07T04:02:30.355Z,65.45
2019-06-07T04:03:05.635Z,65.44
2019-06-07T04:03:50.714Z,65.15
2019-06-07T04:04:18.411Z,64.97
2019-06-07T04:04:53.070Z,64.87
2019-06-07T04:05:29.617Z,65.18
2019-06-07T04:06:06.182Z,64.81
2019-06-07T04:06:42.604Z,64.70
2019-06-07T04:07:18.168Z,64.79
2019-06-07T04:07:53.574Z,64.83
2019-06-07T04:08:28.365Z,64.55
2019-06-07T04:09:03.764Z,64.33
2019-06-07T04:09:42.641Z,64.38
2019-06-07T04:10:15.875Z,64.40
2019-06-07T04:10:59.568Z,64.10
2019-06-07T04:11:28.435Z,64.45
2019-06-07T04:12:03.111Z,64.52
2019-06-07T04:12:42.781Z,64.24
2019-06-07T04:13:15.841Z,64.26
2019-06-07T04:13:50.672Z,64.19
2019-06-07T04:14:26.370Z,64.28
2019-06-07T04:15:01.704Z,64.34
2019-06-07T04:15:39.581Z,64.07
2019-06-07T04:16:13.891Z,64.23
2019-06-07T04:16:49.476Z,64.34
2019-06-07T04:17:24.143Z,64.42
2019-06-07T04:18:02.235Z,64.24
2019-06-07T04:18:40.807Z,64.04
2019-06-07T04:19:13.675Z,64.07
2019-06-07T04:19:49.315Z,63.88
2019-06-07T04:20:24.772Z,63.70
2019-06-07T04:20:59.459Z,63.79
2019-06-07T04:21:37.286Z,63.83
2019-06-07T04:22:12.100Z,63.54
2019-06-07T04:22:46.780Z,63.37
2019-06-07T04:23:28.184Z,63.55
2019-06-07T04:23:59.787Z,63.63
2019-06-07T04:24:38.448Z,63.71
2019-06-07T04:25:13.515Z,63.77
2019-06-07T04:25:48.916Z,63.91
2019-06-07T04:26:23.874Z,63.79
2019-06-07T04:26:59.337Z,63.99
2019-06-07T04:27:37.712Z,63.56
2019-06-07T04:28:11.182Z,63.58
2019-06-07T04:29:32.904Z,63.84
2019-06-07T04:30:07.337Z,63.88
2019-06-07T04:30:45.532Z,64.02
2019-06-07T04:31:22.280Z,63.91
2019-06-07T04:31:57.169Z,63.72
2019-06-07T04:32:34.333Z,63.67
2019-06-07T04:33:10.278Z,63.77
2019-06-07T04:33:45.009Z,63.64
2019-06-07T04:34:20.578Z,63.49
2019-06-07T04:34:56.294Z,63.46
2019-06-07T04:35:32.327Z,63.26
2019-06-07T04:36:07.815Z,63.13
2019-06-07T04:36:56.243Z,62.78
2019-06-07T04:37:20.882Z,62.87
2019-06-07T04:37:56.502Z,62.93
2019-06-07T04:38:39.255Z,63.00
2019-06-07T04:39:09.978Z,62.97
2019-06-07T04:39:45.734Z,62.55
2019-06-07T04:40:20.771Z,62.56
2019-06-07T04:40:55.784Z,62.53
2019-06-07T04:41:33.662Z,62.47
2019-06-07T04:42:11.877Z,62.37
2019-06-07T04:42:46.927Z,62.26
2019-06-07T04:43:22.554Z,62.15
2019-06-07T04:43:59.632Z,62.22
2019-06-07T04:44:41.061Z,62.14
2019-06-07T04:45:33.018Z,62.11
2019-06-07T04:45:52.699Z,62.16
2019-06-07T04:46:31.440Z,61.97
2019-06-07T04:47:09.756Z,62.20
2019-06-07T04:47:47.903Z,62.29
2019-06-07T04:48:22.842Z,62.41
2019-06-07T04:48:58.995Z,62.43
2019-06-07T04:49:38.217Z,62.54
2019-06-07T04:50:13.593Z,62.56
2019-06-07T04:50:50.854Z,62.60
2019-06-07T04:51:30.180Z,62.38
2019-06-07T04:52:06.202Z,62.34
2019-06-07T04:52:44.877Z,62.08
2019-06-07T04:53:18.399Z,62.21
2019-06-07T04:53:53.211Z,62.19
2019-06-07T04:54:31.069Z,62.22
2019-06-07T04:55:07.614Z,62.18
2019-06-07T04:55:42.373Z,62.15
2019-06-07T04:56:18.074Z,62.43
2019-06-07T04:56:53.945Z,62.35
2019-06-07T04:57:32.009Z,62.48
2019-06-07T04:58:06.843Z,62.63
2019-06-07T04:58:43.157Z,62.70
2019-06-07T05:00:00.450Z,62.69
2019-06-07T05:00:45.688Z,62.88
2019-06-07T05:00:56.531Z,62.86
2019-06-07T05:01:26.783Z,62.95
2019-06-07T05:01:49.620Z,63.09
2019-06-07T05:02:25.151Z,63.15
2019-06-07T05:02:59.935Z,63.09
2019-06-07T05:03:38.950Z,63.02
2019-06-07T05:04:13.011Z,62.75
2019-06-07T05:04:47.733Z,62.56
2019-06-07T05:05:23.251Z,62.20
2019-06-07T05:05:58.810Z,62.05
2019-06-07T05:06:36.361Z,62.20
2019-06-07T05:07:10.795Z,62.41
2019-06-07T05:07:46.522Z,62.65
2019-06-07T05:08:28.164Z,62.46
2019-06-07T05:08:58.561Z,62.40
2019-06-07T05:09:37.570Z,61.97
2019-06-07T05:10:10.209Z,61.73
2019-06-07T05:10:45.830Z,61.78
2019-06-07T05:11:21.240Z,61.71
2019-06-07T05:12:36.160Z,61.98
2019-06-07T05:13:11.272Z,61.99
2019-06-07T05:13:46.799Z,61.92
2019-06-07T05:14:21.583Z,61.74
2019-06-07T05:14:57.005Z,61.69
2019-06-07T05:15:34.641Z,61.56
2019-06-07T05:16:10.040Z,61.70
2019-06-07T05:16:45.651Z,61.62
2019-06-07T05:17:21.525Z,61.80
2019-06-07T05:17:56.363Z,61.31
2019-06-07T05:18:33.652Z,61.25
2019-06-07T05:19:09.255Z,61.36
2019-06-07T05:19:44.767Z,61.45
2019-06-07T05:20:20.785Z,61.47
2019-06-07T05:20:57.001Z,61.44
2019-06-07T05:21:59.154Z,61.51
2019-06-07T05:22:09.072Z,61.50
2019-06-07T05:22:45.465Z,61.42
2019-06-07T05:24:00.041Z,61.43
2019-06-07T05:24:07.636Z,61.41
2019-06-07T05:24:35.534Z,61.24
2019-06-07T05:25:11.439Z,60.95
2019-06-07T05:25:47.097Z,60.86
2019-06-07T05:26:22.638Z,60.63
2019-06-07T05:26:57.256Z,60.52
2019-06-07T05:27:35.503Z,60.47
2019-06-07T05:28:09.925Z,60.56
2019-06-07T05:28:44.688Z,60.58
2019-06-07T05:29:20.100Z,60.18
2019-06-07T05:30:09.453Z,59.75
2019-06-07T05:31:15.233Z,60.09
2019-06-07T05:31:51.101Z,60.24
2019-06-07T05:32:25.862Z,60.33
2019-06-07T05:33:01.541Z,60.36
2019-06-07T05:33:38.946Z,60.56
2019-06-07T05:34:13.482Z,61.07
2019-06-07T05:34:49.013Z,61.04
2019-06-07T05:35:24.583Z,61.01
2019-06-07T05:35:59.297Z,60.49
2019-06-07T05:36:37.586Z,60.25
2019-06-07T05:37:12.344Z,60.32
2019-06-07T05:37:47.075Z,60.49
2019-06-07T05:38:22.701Z,60.66
2019-06-07T05:38:58.207Z,60.66
2019-06-07T05:39:36.868Z,60.29
2019-06-07T05:40:10.425Z,60.25
2019-06-07T05:40:48.822Z,60.01
2019-06-07T05:41:23.222Z,59.67
2019-06-07T05:41:58.668Z,59.89
2019-06-07T05:42:37.247Z,60.22
2019-06-07T05:43:24.230Z,60.55
2019-06-07T05:44:12.067Z,60.90
2019-06-07T05:44:39.119Z,61.27
2019-06-07T05:45:14.856Z,61.70
2019-06-07T05:45:50.532Z,61.77
2019-06-07T05:46:25.854Z,62.52
2019-06-07T05:47:00.461Z,63.01
2019-06-07T05:47:40.333Z,63.42
2019-06-07T05:48:13.058Z,64.00
2019-06-07T05:48:47.676Z,64.36
2019-06-07T05:49:23.169Z,64.15
2019-06-07T05:49:58.608Z,64.13
2019-06-07T05:50:41.479Z,64.23
2019-06-07T05:51:10.585Z,64.74
2019-06-07T05:51:46.007Z,64.86
2019-06-07T05:52:20.738Z,64.86
2019-06-07T05:52:56.146Z,64.68
2019-06-07T05:53:32.878Z,64.56
2019-06-07T05:54:07.906Z,64.75
2019-06-07T05:54:46.845Z,64.97
2019-06-07T05:55:20.500Z,65.47
2019-06-07T05:55:55.218Z,65.39
2019-06-07T05:56:30.625Z,65.49
2019-06-07T05:57:06.405Z,65.43
2019-06-07T05:57:45.887Z,65.52
2019-06-07T05:58:18.191Z,65.88
2019-06-07T05:58:53.677Z,65.85
2019-06-07T05:59:28.353Z,65.99
2019-06-07T06:00:03.937Z,65.73
2019-06-07T06:00:41.486Z,65.73
2019-06-07T06:02:02.871Z,66.09
2019-06-07T06:02:30.532Z,65.98
2019-06-07T06:03:06.232Z,65.99
2019-06-07T06:03:43.918Z,66.01
2019-06-07T06:04:19.095Z,66.03
2019-06-07T06:04:53.751Z,65.95
2019-06-07T06:05:34.471Z,65.90
2019-06-07T06:06:06.848Z,65.99
2019-06-07T06:06:44.765Z,65.99
2019-06-07T06:07:19.069Z,65.80
2019-06-07T06:07:54.550Z,65.70
2019-06-07T06:08:29.289Z,65.58
2019-06-07T06:09:13.764Z,65.30
2019-06-07T06:09:43.883Z,65.57
2019-06-07T06:10:19.779Z,65.02
2019-06-07T06:10:55.562Z,64.98
2019-06-07T06:11:45.782Z,64.91
2019-06-07T06:12:07.502Z,64.84
2019-06-07T06:12:49.986Z,64.84
2019-06-07T06:13:20.135Z,64.29
2019-06-07T06:14:06.592Z,63.94
2019-06-07T06:14:32.099Z,63.89
2019-06-07T06:15:10.822Z,63.85
2019-06-07T06:16:00.491Z,63.64
2019-06-07T06:16:22.835Z,63.31
2019-06-07T06:16:58.348Z,63.42
2019-06-07T06:17:33.160Z,63.19
2019-06-07T06:18:09.075Z,63.09
2019-06-07T06:18:47.200Z,63.19
2019-06-07T06:19:20.996Z,63.01
2019-06-07T06:19:56.318Z,63.32
2019-06-07T06:20:34.796Z,63.22
2019-06-07T06:21:17.860Z,63.00
2019-06-07T06:21:46.476Z,62.45
2019-06-07T06:22:22.078Z,62.11
2019-06-07T06:22:56.766Z,62.38
2019-06-07T06:23:32.217Z,62.84
2019-06-07T06:24:07.673Z,63.72
2019-06-07T06:25:04.215Z,63.40
2019-06-07T06:25:37.569Z,63.56
2019-06-07T06:25:58.343Z,63.36
2019-06-07T06:26:33.125Z,63.00
2019-06-07T06:27:28.452Z,64.25
2019-06-07T06:28:22.479Z,63.96
2019-06-07T06:28:57.927Z,63.99
2019-06-07T06:29:33.312Z,63.94
2019-06-07T06:30:12.231Z,63.60
2019-06-07T06:30:50.020Z,63.64
2019-06-07T06:31:25.447Z,63.46
2019-06-07T06:32:40.585Z,62.62
2019-06-07T06:32:45.522Z,62.34
2019-06-07T06:33:30.685Z,62.28
2019-06-07T06:33:50.776Z,62.19
2019-06-07T06:34:26.139Z,61.69
2019-06-07T06:35:01.825Z,61.82
2019-06-07T06:35:37.330Z,61.37
2019-06-07T06:36:13.166Z,61.93
2019-06-07T06:36:50.431Z,61.76
2019-06-07T06:37:25.023Z,61.62
2019-06-07T06:38:00.477Z,61.31
2019-06-07T06:38:38.280Z,61.72
2019-06-07T06:39:12.342Z,62.23
2019-06-07T06:39:49.949Z,61.82
2019-06-07T06:40:25.328Z,61.70
2019-06-07T06:41:15.482Z,61.43
2019-06-07T06:41:49.439Z,62.34
2019-06-07T06:42:14.525Z,62.22
2019-06-07T06:42:50.605Z,61.73
2019-06-07T06:43:26.160Z,61.35
2019-06-07T06:44:01.549Z,60.99
2019-06-07T06:44:36.165Z,60.88
2019-06-07T06:45:13.499Z,60.77
2019-06-07T06:45:50.684Z,60.44
2019-06-07T06:46:38.788Z,60.14
2019-06-07T06:47:02.575Z,59.76
2019-06-07T06:47:40.553Z,58.69
2019-06-07T06:48:15.238Z,59.72
2019-06-07T06:48:54.852Z,60.14
2019-06-07T06:49:28.192Z,59.69
2019-06-07T06:50:02.899Z,59.86
2019-06-07T06:50:38.743Z,59.76
2019-06-07T06:51:14.332Z,59.91
2019-06-07T06:51:53.231Z,60.00
2019-06-07T06:52:26.423Z,60.30
2019-06-07T06:53:01.867Z,60.40
2019-06-07T06:53:36.554Z,60.22
2019-06-07T06:54:12.012Z,60.44
2019-06-07T06:54:55.368Z,61.03
2019-06-07T06:55:24.180Z,60.82
2019-06-07T06:56:00.136Z,60.72
2019-06-07T06:56:35.697Z,60.19
2019-06-07T06:57:19.587Z,60.46
2019-06-07T06:57:48.356Z,60.38
2019-06-07T06:58:24.911Z,60.44
2019-06-07T06:59:33.953Z,60.46
2019-06-07T06:59:39.087Z,60.47
2019-06-07T07:00:16.534Z,60.00
2019-06-07T07:01:05.468Z,60.20
2019-06-07T07:01:29.660Z,59.73
2019-06-07T07:02:05.220Z,59.59
2019-06-07T07:03:27.036Z,59.58
2019-06-07T07:03:54.064Z,59.74
2019-06-07T07:04:10.646Z,59.73
2019-06-07T07:04:32.240Z,59.55
2019-06-07T07:05:11.035Z,59.26
2019-06-07T07:05:50.790Z,59.18
2019-06-07T07:06:26.708Z,59.08
2019-06-07T07:07:02.145Z,59.15
2019-06-07T07:07:37.867Z,59.19
2019-06-07T07:08:12.855Z,59.31
2019-06-07T07:08:50.858Z,59.19
2019-06-07T07:09:26.657Z,59.40
2019-06-07T07:10:03.131Z,59.29
2019-06-07T07:10:52.635Z,59.10
2019-06-07T07:11:26.395Z,59.30
2019-06-07T07:12:12.338Z,59.33
2019-06-07T07:12:38.258Z,58.96
2019-06-07T07:13:14.004Z,59.32
2019-06-07T07:13:53.485Z,59.45
2019-06-07T07:14:25.937Z,59.29
2019-06-07T07:15:01.296Z,59.17
2019-06-07T07:15:36.120Z,58.53
2019-06-07T07:16:11.628Z,58.28
2019-06-07T07:16:50.093Z,58.63
2019-06-07T07:17:46.910Z,58.45
2019-06-07T07:18:08.447Z,58.35
2019-06-07T07:18:37.769Z,58.38
2019-06-07T07:19:12.436Z,58.10
2019-06-07T07:19:49.864Z,58.37
2019-06-07T07:20:25.638Z,58.44
2019-06-07T07:21:00.381Z,58.52
2019-06-07T07:21:36.072Z,58.18
2019-06-07T07:22:11.746Z,58.05
2019-06-07T07:22:48.594Z,57.73
2019-06-07T07:23:24.132Z,57.74
2019-06-07T07:24:20.143Z,57.67
2019-06-07T07:24:36.403Z,57.58
2019-06-07T07:25:12.014Z,57.60
2019-06-07T07:25:56.629Z,57.73
2019-06-07T07:26:24.140Z,57.57
2019-06-07T07:26:59.907Z,57.60
2019-06-07T07:27:35.448Z,57.65
2019-06-07T07:28:10.861Z,57.67
2019-06-07T07:28:50.773Z,57.52
2019-06-07T07:29:23.414Z,57.35
2019-06-07T07:30:34.646Z,57.23
2019-06-07T07:30:52.660Z,57.51
2019-06-07T07:31:26.217Z,57.62
2019-06-07T07:32:00.899Z,57.74
2019-06-07T07:32:36.464Z,57.27
2019-06-07T07:33:11.930Z,57.35
2019-06-07T07:34:34.880Z,57.38
2019-06-07T07:35:01.029Z,57.45
2019-06-07T07:35:35.725Z,57.08
2019-06-07T07:36:28.686Z,56.85
2019-06-07T07:36:52.957Z,56.73
2019-06-07T07:37:24.924Z,56.73
2019-06-07T07:38:00.327Z,56.75
2019-06-07T07:38:36.394Z,56.71
2019-06-07T07:39:11.375Z,56.82
2019-06-07T07:39:50.166Z,56.89
2019-06-07T07:41:13.816Z,57.11
2019-06-07T07:41:38.647Z,55.92
2019-06-07T07:42:21.174Z,55.85
2019-06-07T07:42:54.318Z,55.77
2019-06-07T07:43:28.258Z,56.36
2019-06-07T07:44:07.116Z,56.06
2019-06-07T07:44:40.341Z,54.69
2019-06-07T07:45:16.003Z,54.56
2019-06-07T07:46:01.433Z,54.72
2019-06-07T07:46:29.463Z,54.78
2019-06-07T07:47:05.009Z,55.06
2019-06-07T07:47:58.345Z,54.81
2019-06-07T07:48:18.496Z,54.30
2019-06-07T07:48:55.801Z,54.11
2019-06-07T07:49:31.309Z,54.04
2019-06-07T07:50:08.054Z,54.05
2019-06-07T07:50:47.541Z,54.03
2019-06-07T07:51:20.540Z,54.04
2019-06-07T07:51:58.427Z,53.82
2019-06-07T07:52:32.518Z,53.50
2019-06-07T07:53:08.359Z,53.52